Huvudsida
METAR-TAF:

METAR-TAF

Flygplatser :

Bahrains internationella flygplats

Bahrain, Bahrain

latitud: 26-16N, longitud: 050-39E, höjd: 2 m

Aktuellt väderrapport

Denna rapport gjordes för 41 minuter sedan, klockan 07:00 UTC
Vind 6 kt från nord, varierande mellan nord/nordväst och nordost
Temperatur 21°C
Fuktighet 60%
Tryck 1020 hPa
Sikt 10 km eller mer
Inga moln under 1 500 m eller inga cumulonimbus

METAR: OBBI 220700Z 01006KT 340V050 CAVOK 21/13 Q1020 NOSIG

Tid: 10:41 (07:41 UTC)

Väderprognos

Denna rapport gjordes för 2 timmar och 41 minuter sedan, klockan 05:00 UTC
Prognos gäller från 22 kl. 06 UTC till 23 kl. 12 UTC
Vind 5 kt varierande vindriktning
Sikt: 8000 m
Temporärt
från 22 kl. 21 UTC till 23 kl. 07 UTC
Sikt: 4000 m
torrdis
Sannolikhet 30% :
Temporärt
från 23 kl. 01 UTC till 23 kl. 06 UTC
Sikt: 2000 m
Spridda moln på en höjd av 800 ft
fuktdis

TAF: OBBI 220500Z 2206/2312 VRB05KT 8000 NSC TEMPO 2221/2307 4000 HZ PROB30 TEMPO 2301/2306 2000 BR SCT008

Aktuella väderrapporter och prognoser från 4000 flygplatser (METAR- och TAF-rapporter).

De tillgängliga stationerna syns som gula och röda prickar på kartan.

För musen över prickarna för att se namnen på stationerna.

Klicka sedan för att få väderrapporter och prognoser.

För att ändra kartan: Klicka på de gröna knapparna med ett svart kors på för att zooma in; den gröna knappen med ett streck på för att zooma ut; eller på de gröna pilarna för angränsande kartor.


METAR-TAF: